createdAt,value
2022-08-19T00:01:55.509Z,101182.45
2022-08-19T00:04:29.436Z,101191.92
2022-08-19T00:06:57.269Z,101194.80
2022-08-19T00:09:25.878Z,101201.90
2022-08-19T00:11:54.959Z,101212.69
2022-08-19T00:14:23.899Z,101217.17
2022-08-19T00:16:56.379Z,101218.74
2022-08-19T00:19:25.881Z,101210.04
2022-08-19T00:21:54.267Z,101212.43
2022-08-19T00:24:22.039Z,101197.42
2022-08-19T00:26:49.725Z,101196.63
2022-08-19T00:29:19.934Z,101199.77
2022-08-19T00:31:48.326Z,101195.30
2022-08-19T00:34:18.481Z,101200.03
2022-08-19T00:36:47.060Z,101203.21
2022-08-19T00:39:20.294Z,101199.74
2022-08-19T00:41:52.244Z,101200.55
2022-08-19T00:44:29.201Z,101203.70
2022-08-19T00:47:01.085Z,101204.74
2022-08-19T00:49:39.148Z,101199.45
2022-08-19T00:52:14.836Z,101204.45
2022-08-19T00:54:43.553Z,101205.23
2022-08-19T00:57:16.988Z,101204.71
2022-08-19T00:59:56.299Z,101196.02
2022-08-19T01:02:31.571Z,101197.09
2022-08-19T01:04:59.699Z,101201.54
2022-08-19T01:07:27.376Z,101198.34
2022-08-19T01:09:55.878Z,101202.55
2022-08-19T01:12:24.423Z,101202.29
2022-08-19T01:14:53.388Z,101197.29
2022-08-19T01:17:21.750Z,101198.07
2022-08-19T01:19:50.261Z,101193.07
2022-08-19T01:22:33.978Z,101189.37
2022-08-19T01:25:03.486Z,101179.66
2022-08-19T01:27:47.913Z,101177.54
2022-08-19T01:30:22.761Z,101176.20
2022-08-19T01:32:52.067Z,101177.51
2022-08-19T01:35:21.045Z,101172.24
2022-08-19T01:38:05.009Z,101178.03
2022-08-19T01:40:35.569Z,101177.54
2022-08-19T01:43:05.513Z,101180.45
2022-08-19T01:45:35.409Z,101183.85
2022-08-19T01:48:03.400Z,101187.55
2022-08-19T01:50:33.862Z,101179.66
2022-08-19T01:53:07.881Z,101185.98
2022-08-19T01:55:40.971Z,101183.09
2022-08-19T01:58:14.949Z,101178.88
2022-08-19T02:00:43.822Z,101166.78
2022-08-19T02:03:13.214Z,101161.74
2022-08-19T02:05:42.014Z,101148.60
2022-08-19T02:08:10.659Z,101152.29
2022-08-19T02:10:42.718Z,101156.77
2022-08-19T02:13:10.987Z,101160.99
2022-08-19T02:15:39.497Z,101156.77
2022-08-19T02:18:09.459Z,101158.34
2022-08-19T02:20:38.069Z,101155.70
2022-08-19T02:23:06.033Z,101155.40
2022-08-19T02:25:42.614Z,101158.02
2022-08-19T02:28:10.421Z,101167.20
2022-08-19T02:30:38.090Z,101172.99
2022-08-19T02:33:06.787Z,101161.16
2022-08-19T02:35:34.442Z,101161.38
2022-08-19T02:38:20.840Z,101160.63
2022-08-19T02:40:54.419Z,101168.52
2022-08-19T02:43:23.251Z,101165.87
2022-08-19T02:45:51.921Z,101169.56
2022-08-19T02:48:22.053Z,101171.91
2022-08-19T02:50:55.794Z,101174.27
2022-08-19T02:53:25.458Z,101173.48
2022-08-19T02:55:53.798Z,101175.09
2022-08-19T02:58:23.089Z,101177.96
2022-08-19T03:00:55.572Z,101170.05
2022-08-19T03:03:23.330Z,101167.70
2022-08-19T03:05:56.577Z,101165.05
2022-08-19T03:08:27.825Z,101166.62
2022-08-19T03:10:55.969Z,101164.26
2022-08-19T03:13:23.733Z,101172.66
2022-08-19T03:15:51.531Z,101159.45
2022-08-19T03:18:19.570Z,101168.41
2022-08-19T03:20:50.262Z,101159.72
2022-08-19T03:23:19.035Z,101165.50
2022-08-19T03:26:03.833Z,101166.29
2022-08-19T03:28:37.078Z,101174.20
2022-08-19T03:31:44.424Z,101167.63
2022-08-19T03:34:04.967Z,101177.34
2022-08-19T03:36:35.984Z,101171.00
2022-08-19T03:39:03.671Z,101173.68
2022-08-19T03:41:45.436Z,101170.77
2022-08-19T03:44:25.415Z,101180.22
2022-08-19T03:46:59.789Z,101176.55
2022-08-19T03:49:31.953Z,101174.98
2022-08-19T03:52:02.370Z,101165.70
2022-08-19T03:54:30.755Z,101165.99
2022-08-19T03:56:59.356Z,101161.94
2022-08-19T03:59:33.312Z,101158.48
2022-08-19T04:02:03.588Z,101143.46
2022-08-19T04:04:32.156Z,101144.31
2022-08-19T04:07:00.255Z,101143.79
2022-08-19T04:09:28.142Z,101139.05
2022-08-19T04:11:57.888Z,101135.13
2022-08-19T04:14:32.130Z,101137.02
2022-08-19T04:17:02.167Z,101130.94
2022-08-19T04:19:32.702Z,101129.93
2022-08-19T04:22:00.779Z,101125.15
2022-08-19T04:24:28.685Z,101122.02
2022-08-19T04:26:56.535Z,101132.84
2022-08-19T04:29:27.179Z,101133.33
2022-08-19T04:31:57.609Z,101141.47
2022-08-19T04:34:28.937Z,101143.30
2022-08-19T04:36:59.174Z,101154.88
2022-08-19T04:39:50.564Z,101159.88
2022-08-19T04:42:39.114Z,101167.79
2022-08-19T04:45:13.593Z,101159.09
2022-08-19T04:47:46.924Z,101171.45
2022-08-19T04:50:19.364Z,101174.89
2022-08-19T04:52:47.129Z,101173.25
2022-08-19T04:55:16.277Z,101181.13
2022-08-19T04:57:43.949Z,101190.32
2022-08-19T05:00:12.595Z,101182.48
2022-08-19T05:02:40.979Z,101179.56
2022-08-19T05:05:09.209Z,101188.79
2022-08-19T05:07:37.782Z,101197.23
2022-08-19T05:10:07.887Z,101213.80
2022-08-19T05:12:35.816Z,101202.26
2022-08-19T05:15:06.017Z,101204.13
2022-08-19T05:17:38.301Z,101202.81
2022-08-19T05:20:27.246Z,101212.00
2022-08-19T05:22:55.350Z,101213.05
2022-08-19T05:25:24.296Z,101215.44
2022-08-19T05:27:52.018Z,101217.01
2022-08-19T05:30:33.528Z,101233.62
2022-08-19T05:33:08.433Z,101236.76
2022-08-19T05:35:36.192Z,101239.47
2022-08-19T05:38:03.899Z,101241.63
2022-08-19T05:40:31.540Z,101230.35
2022-08-19T05:42:59.219Z,101236.43
2022-08-19T05:45:27.351Z,101233.59
2022-08-19T05:47:55.068Z,101231.23
2022-08-19T05:50:23.627Z,101237.05
2022-08-19T05:52:51.431Z,101230.48
2022-08-19T05:55:22.241Z,101226.30
2022-08-19T05:57:50.400Z,101229.20
2022-08-19T06:00:21.481Z,101227.63
2022-08-19T06:02:53.242Z,101221.59
2022-08-19T06:05:22.146Z,101213.45
2022-08-19T06:07:49.873Z,101214.49
2022-08-19T06:10:17.779Z,101207.13
2022-08-19T06:12:45.422Z,101213.48
2022-08-19T06:15:16.159Z,101208.44
2022-08-19T06:17:46.460Z,101213.18
2022-08-19T06:20:18.747Z,101217.70
2022-08-19T06:22:48.898Z,101219.79
2022-08-19T06:25:17.592Z,101228.98
2022-08-19T06:28:13.538Z,101220.57
2022-08-19T06:30:33.862Z,101225.02
2022-08-19T06:33:01.594Z,101226.36
2022-08-19T06:35:31.368Z,101228.16
2022-08-19T06:37:59.072Z,101216.84
2022-08-19T06:40:29.021Z,101222.89
2022-08-19T06:42:58.306Z,101219.72
2022-08-19T06:45:35.516Z,101216.58
2022-08-19T06:48:03.859Z,101221.29
2022-08-19T06:50:31.627Z,101217.89
2022-08-19T06:53:01.441Z,101225.77
2022-08-19T06:55:33.398Z,101218.15
2022-08-19T06:58:05.616Z,101217.86
2022-08-19T07:00:33.962Z,101223.38
2022-08-19T07:03:06.197Z,101227.05
2022-08-19T07:05:45.476Z,101224.95
2022-08-19T07:08:13.665Z,101222.56
2022-08-19T07:10:45.886Z,101229.66
2022-08-19T07:13:14.086Z,101223.09
2022-08-19T07:15:41.854Z,101223.35
2022-08-19T07:18:11.682Z,101223.09
2022-08-19T07:20:40.470Z,101223.84
2022-08-19T07:23:09.940Z,101239.38
2022-08-19T07:25:52.490Z,101243.04
2022-08-19T07:28:24.747Z,101243.04
2022-08-19T07:30:53.077Z,101249.87
2022-08-19T07:33:21.347Z,101252.78
2022-08-19T07:35:49.112Z,101252.26
2022-08-19T07:38:18.441Z,101255.66
2022-08-19T07:40:48.203Z,101250.69
2022-08-19T21:15:17.357Z,101684.88
2022-08-19T21:17:45.369Z,101675.66
2022-08-19T21:20:13.398Z,101681.74
2022-08-19T21:22:41.519Z,101674.88
2022-08-19T21:25:09.302Z,101681.48
2022-08-19T21:27:37.059Z,101682.79
2022-08-19T21:30:06.099Z,101685.93
2022-08-19T21:32:33.857Z,101684.39
2022-08-19T21:35:03.261Z,101692.01
2022-08-19T21:37:31.187Z,101682.30
2022-08-19T21:39:58.881Z,101688.05
2022-08-19T21:42:26.594Z,101691.45
2022-08-19T21:44:54.962Z,101689.88
2022-08-19T21:47:22.729Z,101698.32
2022-08-19T21:49:50.407Z,101693.02
2022-08-19T21:52:26.248Z,101689.06
2022-08-19T21:54:54.263Z,101696.98
2022-08-19T21:57:21.953Z,101699.86
2022-08-19T21:59:49.582Z,101701.20
2022-08-19T22:02:20.853Z,101700.41
2022-08-19T22:04:50.865Z,101707.48
2022-08-19T22:07:19.585Z,101705.65
2022-08-19T22:09:49.218Z,101719.09
2022-08-19T22:12:46.075Z,101706.69
2022-08-19T22:15:22.457Z,101711.43
2022-08-19T22:17:51.190Z,101704.86
2022-08-19T22:20:24.016Z,101706.20
2022-08-19T22:22:57.499Z,101699.37
2022-08-19T22:25:31.239Z,101709.96
2022-08-19T22:28:01.550Z,101704.92
2022-08-19T22:30:33.730Z,101716.53
2022-08-19T22:33:05.536Z,101710.52
2022-08-19T22:35:36.856Z,101711.83
2022-08-19T22:38:07.582Z,101717.61
2022-08-19T22:40:38.047Z,101711.30
2022-08-19T22:43:08.894Z,101711.30
2022-08-19T22:45:37.461Z,101711.07
2022-08-19T22:48:10.884Z,101713.95
2022-08-19T22:50:40.147Z,101699.20
2022-08-19T22:53:10.869Z,101702.11
2022-08-19T22:55:39.954Z,101713.43
2022-08-19T22:58:07.653Z,101700.28
2022-08-19T23:00:36.029Z,101700.02
2022-08-19T23:03:03.785Z,101698.71
2022-08-19T23:05:31.569Z,101701.10
2022-08-19T23:07:59.554Z,101702.67
2022-08-19T23:10:30.083Z,101701.36
2022-08-19T23:13:00.182Z,101705.32
2022-08-19T23:15:31.570Z,101703.20
2022-08-19T23:18:03.109Z,101711.14
2022-08-19T23:20:34.686Z,101705.61
2022-08-19T23:23:04.983Z,101694.04
2022-08-19T23:25:34.430Z,101700.34
2022-08-19T23:28:20.907Z,101699.30
2022-08-19T23:30:50.739Z,101690.63
2022-08-19T23:33:26.032Z,101693.28
2022-08-19T23:36:16.542Z,101693.28
2022-08-19T23:38:47.098Z,101682.72
2022-08-19T23:41:17.122Z,101696.69
2022-08-19T23:43:45.966Z,101696.95
2022-08-19T23:46:27.309Z,101695.93
2022-08-19T23:48:56.711Z,101697.77
2022-08-19T23:51:24.783Z,101701.72
2022-08-19T23:53:52.512Z,101694.04
2022-08-19T23:56:20.182Z,101695.93
2022-08-19T23:58:50.100Z,101695.38
